Time;durP1;ratioP1;P1;durP2;ratioP2;P2;SDS_P1;SDS_P2;PMS_P1;PMS_P2;Temp;Humidity;BMP_temperature;BMP_pressure;BME280_temperature;BME280_humidity;BME280_pressure;Samples;Min_cycle;Max_cycle;Signal;HPM_P1;HPM_P2
2022/03/19 00:01:15;;;;;;;10.47;7.10;;;;;;;;;;5048838;28;20249;-75
2022/03/19 00:03:43;;;;;;;13.53;6.93;;;;;;;;;;5048835;28;20207;-75
2022/03/19 00:06:12;;;;;;;9.47;6.63;;;;;;;;;;5048293;28;20297;-75
2022/03/19 00:08:40;;;;;;;11.73;7.17;;;;;;;;;;5049171;28;20203;-75
2022/03/19 00:11:10;;;;;;;12.93;7.20;;;;;;;;;;5049152;28;20218;-75
2022/03/19 00:13:39;;;;;;;10.97;7.07;;;;;;;;;;5049147;28;20226;-75
2022/03/19 00:16:07;;;;;;;13.40;6.80;;;;;;;;;;5048370;28;20198;-75
2022/03/19 00:18:38;;;;;;;12.87;7.17;;;;;;;;;;5048813;28;20207;-75
2022/03/19 00:21:07;;;;;;;12.93;6.63;;;;;;;;;;5048815;28;20241;-75
2022/03/19 00:23:36;;;;;;;14.77;6.93;;;;;;;;;;5049424;28;20213;-74
2022/03/19 00:26:04;;;;;;;10.63;6.17;;;;;;;;;;5048013;28;20205;-74
2022/03/19 00:28:34;;;;;;;14.13;6.70;;;;;;;;;;5049115;28;20234;-74
2022/03/19 00:31:02;;;;;;;13.73;7.23;;;;;;;;;;5050860;28;20203;-75
2022/03/19 00:33:31;;;;;;;10.90;6.50;;;;;;;;;;5052712;28;20206;-74
2022/03/19 00:35:59;;;;;;;13.20;7.07;;;;;;;;;;5052023;28;20212;-74
2022/03/19 00:38:29;;;;;;;13.27;6.67;;;;;;;;;;5052442;28;20621;-75
2022/03/19 00:40:57;;;;;;;9.83;6.13;;;;;;;;;;5052070;28;20203;-73
2022/03/19 00:43:25;;;;;;;12.57;6.60;;;;;;;;;;5052277;28;20217;-74
2022/03/19 00:45:55;;;;;;;11.80;6.17;;;;;;;;;;5051791;28;20745;-75
2022/03/19 00:48:23;;;;;;;11.50;6.50;;;;;;;;;;5052228;28;20235;-74
2022/03/19 00:50:52;;;;;;;15.40;6.80;;;;;;;;;;5052290;28;20199;-74
2022/03/19 00:53:20;;;;;;;17.77;6.30;;;;;;;;;;5052162;28;20256;-74
2022/03/19 00:55:51;;;;;;;9.83;6.40;;;;;;;;;;5052020;28;20210;-73
2022/03/19 00:58:20;;;;;;;12.80;6.53;;;;;;;;;;5052853;28;20603;-75
2022/03/19 01:00:48;;;;;;;12.53;6.70;;;;;;;;;;5055600;28;20209;-75
2022/03/19 01:03:18;;;;;;;8.53;6.63;;;;;;;;;;5052935;28;20273;-74
2022/03/19 01:05:47;;;;;;;11.67;6.27;;;;;;;;;;5051825;28;20282;-74
2022/03/19 01:08:15;;;;;;;13.93;6.73;;;;;;;;;;5051681;28;20226;-75
2022/03/19 01:10:44;;;;;;;10.37;5.83;;;;;;;;;;5052211;28;20301;-74
2022/03/19 01:13:12;;;;;;;13.47;5.93;;;;;;;;;;5051682;28;20690;-74
2022/03/19 01:15:41;;;;;;;11.10;5.97;;;;;;;;;;5051669;28;20554;-74
2022/03/19 01:18:09;;;;;;;13.57;6.20;;;;;;;;;;5051789;28;20611;-74
2022/03/19 01:20:40;;;;;;;13.77;6.07;;;;;;;;;;5051682;28;20207;-75
2022/03/19 01:23:08;;;;;;;12.03;6.07;;;;;;;;;;5051317;28;20203;-74
2022/03/19 01:25:36;;;;;;;9.90;6.20;;;;;;;;;;5051457;28;20210;-75
2022/03/19 01:28:05;;;;;;;10.67;5.73;;;;;;;;;;5051702;28;20226;-74
2022/03/19 01:30:34;;;;;;;10.67;5.87;;;;;;;;;;5055446;28;20619;-75
2022/03/19 01:33:02;;;;;;;13.93;5.90;;;;;;;;;;5053710;28;20207;-75
2022/03/19 01:35:31;;;;;;;13.67;6.20;;;;;;;;;;5050960;28;20658;-74
2022/03/19 01:38:04;;;;;;;9.33;5.50;;;;;;;;;;5051045;28;20714;-73
2022/03/19 01:40:33;;;;;;;12.77;5.80;;;;;;;;;;5051421;28;20211;-74
2022/03/19 01:43:01;;;;;;;9.47;5.60;;;;;;;;;;5050955;28;20254;-75
2022/03/19 01:45:30;;;;;;;10.07;5.60;;;;;;;;;;5051378;28;20569;-75
2022/03/19 01:47:58;;;;;;;13.20;6.47;;;;;;;;;;5051916;28;20702;-74
2022/03/19 01:50:27;;;;;;;11.47;6.27;;;;;;;;;;5051056;28;20550;-74
2022/03/19 01:52:56;;;;;;;9.53;5.47;;;;;;;;;;5051062;28;20203;-74
2022/03/19 01:55:28;;;;;;;9.93;5.70;;;;;;;;;;5051225;28;20258;-74
2022/03/19 01:57:57;;;;;;;9.37;5.60;;;;;;;;;;5050856;28;20715;-74
2022/03/19 02:00:27;;;;;;;12.00;6.00;;;;;;;;;;5040444;28;20206;-73
2022/03/19 02:02:55;;;;;;;8.03;5.37;;;;;;;;;;5044051;28;20212;-73
2022/03/19 02:05:25;;;;;;;9.80;5.50;;;;;;;;;;5042417;28;20206;-75
2022/03/19 02:07:54;;;;;;;8.67;5.43;;;;;;;;;;5051276;28;20600;-75
2022/03/19 02:10:23;;;;;;;12.70;6.00;;;;;;;;;;5050764;28;20237;-75
2022/03/19 02:12:55;;;;;;;12.30;5.70;;;;;;;;;;5051068;28;20202;-73
2022/03/19 02:15:24;;;;;;;10.33;5.67;;;;;;;;;;5050835;28;20288;-75
2022/03/19 02:17:53;;;;;;;9.43;5.70;;;;;;;;;;5050809;28;20220;-74
2022/03/19 02:20:21;;;;;;;12.03;6.00;;;;;;;;;;5050747;28;20219;-74
2022/03/19 02:25:37;;;;;;;13.10;5.40;;;;;;;;;;5050094;28;20254;-74
2022/03/19 02:28:06;;;;;;;10.47;5.40;;;;;;;;;;5050541;28;20234;-75
2022/03/19 02:30:39;;;;;;;12.20;5.30;;;;;;;;;;5050324;28;20309;-74
2022/03/19 02:33:07;;;;;;;10.77;5.80;;;;;;;;;;5030787;28;20212;-74
2022/03/19 02:35:36;;;;;;;10.03;5.17;;;;;;;;;;5038063;28;20575;-74
2022/03/19 02:38:04;;;;;;;10.70;5.70;;;;;;;;;;5049780;28;20308;-75
2022/03/19 02:40:33;;;;;;;10.27;5.67;;;;;;;;;;5049911;28;20211;-75
2022/03/19 02:43:03;;;;;;;11.30;4.90;;;;;;;;;;5050819;28;20206;-74
2022/03/19 02:45:31;;;;;;;14.90;5.57;;;;;;;;;;5046260;28;20719;-75
2022/03/19 02:48:00;;;;;;;16.87;5.87;;;;;;;;;;5037836;28;20271;-74
2022/03/19 02:50:31;;;;;;;11.07;5.03;;;;;;;;;;5050295;28;20195;-74
2022/03/19 02:53:00;;;;;;;9.83;5.30;;;;;;;;;;5060865;22;20239;-75
2022/03/19 02:55:32;;;;;;;14.47;6.10;;;;;;;;;;5050339;28;20206;-74
2022/03/19 02:58:00;;;;;;;11.33;5.47;;;;;;;;;;5049942;28;20223;-74
2022/03/19 03:00:31;;;;;;;16.20;5.47;;;;;;;;;;5050234;28;20277;-73
2022/03/19 03:02:59;;;;;;;12.17;5.40;;;;;;;;;;5049483;28;20562;-75
2022/03/19 03:05:28;;;;;;;10.47;5.40;;;;;;;;;;5049322;28;20214;-75
2022/03/19 03:07:56;;;;;;;11.47;5.50;;;;;;;;;;5050164;28;20277;-74
2022/03/19 03:10:26;;;;;;;8.83;5.57;;;;;;;;;;5049930;28;20221;-74
2022/03/19 03:12:54;;;;;;;12.07;5.50;;;;;;;;;;5049939;28;20195;-74
2022/03/19 03:15:23;;;;;;;7.00;5.10;;;;;;;;;;5049526;28;20217;-74
2022/03/19 03:17:53;;;;;;;18.07;6.50;;;;;;;;;;5049706;28;20250;-74
2022/03/19 03:20:21;;;;;;;12.30;5.97;;;;;;;;;;5049539;28;20264;-74
2022/03/19 03:22:50;;;;;;;11.20;5.40;;;;;;;;;;5049846;28;20607;-75
2022/03/19 03:25:18;;;;;;;9.90;5.30;;;;;;;;;;5049182;28;20629;-74
2022/03/19 03:27:47;;;;;;;11.33;5.03;;;;;;;;;;5049504;28;20233;-75
2022/03/19 03:30:18;;;;;;;12.77;6.13;;;;;;;;;;5049434;28;20693;-74
2022/03/19 03:32:47;;;;;;;9.33;5.93;;;;;;;;;;5049548;28;20253;-74
2022/03/19 03:35:16;;;;;;;13.10;5.60;;;;;;;;;;5049082;28;20203;-74
2022/03/19 03:37:45;;;;;;;11.67;5.50;;;;;;;;;;5049728;28;20223;-74
2022/03/19 03:40:14;;;;;;;13.17;5.73;;;;;;;;;;5053971;28;20207;-74
2022/03/19 03:42:42;;;;;;;13.73;6.20;;;;;;;;;;5052773;28;20222;-75
2022/03/19 03:45:11;;;;;;;15.43;5.70;;;;;;;;;;5051981;28;20329;-75
2022/03/19 03:47:40;;;;;;;16.40;6.27;;;;;;;;;;5052227;28;20227;-74
2022/03/19 03:50:09;;;;;;;13.60;5.53;;;;;;;;;;5052139;28;20222;-74
2022/03/19 03:52:38;;;;;;;14.57;5.97;;;;;;;;;;5052153;28;20214;-74
2022/03/19 03:55:08;;;;;;;17.63;6.37;;;;;;;;;;5052003;28;20229;-74
2022/03/19 03:57:37;;;;;;;10.90;4.97;;;;;;;;;;5052115;28;20222;-74
2022/03/19 04:00:08;;;;;;;9.90;5.53;;;;;;;;;;5052322;28;20204;-75
2022/03/19 04:02:37;;;;;;;12.83;5.70;;;;;;;;;;5052336;28;20215;-74
2022/03/19 04:05:07;;;;;;;10.90;5.10;;;;;;;;;;5052566;28;20209;-74
2022/03/19 04:07:35;;;;;;;12.13;6.00;;;;;;;;;;5055789;28;20223;-74
2022/03/19 04:10:05;;;;;;;13.33;5.87;;;;;;;;;;5056117;28;20226;-74
2022/03/19 04:12:34;;;;;;;14.83;6.20;;;;;;;;;;5055783;28;20199;-74
2022/03/19 04:15:02;;;;;;;13.37;5.57;;;;;;;;;;5055696;28;20195;-73
2022/03/19 04:17:31;;;;;;;12.50;6.30;;;;;;;;;;5055703;28;20693;-74
2022/03/19 04:19:59;;;;;;;19.40;6.63;;;;;;;;;;5055615;28;20202;-74
2022/03/19 04:22:34;;;;;;;14.20;6.40;;;;;;;;;;5055561;28;20245;-73
2022/03/19 04:25:02;;;;;;;17.63;6.50;;;;;;;;;;5055432;28;20202;-75
2022/03/19 04:27:32;;;;;;;12.63;6.80;;;;;;;;;;5055757;28;20245;-75
2022/03/19 04:30:00;;;;;;;15.43;7.00;;;;;;;;;;5055709;28;20218;-74
2022/03/19 04:32:29;;;;;;;13.87;6.40;;;;;;;;;;5055372;28;20203;-74
2022/03/19 04:34:57;;;;;;;15.20;6.57;;;;;;;;;;5054627;28;20206;-74
2022/03/19 04:37:26;;;;;;;15.50;6.90;;;;;;;;;;5055158;28;20702;-75
2022/03/19 04:39:54;;;;;;;13.10;6.70;;;;;;;;;;5055202;28;20196;-75
2022/03/19 04:42:23;;;;;;;11.90;6.50;;;;;;;;;;5055855;28;20195;-75
2022/03/19 04:44:53;;;;;;;21.47;7.13;;;;;;;;;;5066919;22;20230;-73
2022/03/19 04:47:21;;;;;;;18.53;6.27;;;;;;;;;;5074829;28;20226;-73
2022/03/19 04:49:54;;;;;;;13.60;6.20;;;;;;;;;;5074935;28;20583;-74
2022/03/19 04:52:22;;;;;;;16.60;6.57;;;;;;;;;;5072748;28;20263;-74
2022/03/19 04:54:51;;;;;;;18.40;6.33;;;;;;;;;;5072037;28;20202;-73
2022/03/19 04:57:19;;;;;;;15.13;6.17;;;;;;;;;;5075017;28;20693;-74
2022/03/19 04:59:48;;;;;;;14.30;6.50;;;;;;;;;;5075079;28;20719;-74
2022/03/19 05:02:17;;;;;;;18.20;6.63;;;;;;;;;;5075161;28;20199;-75
2022/03/19 05:04:46;;;;;;;20.60;7.00;;;;;;;;;;5075274;28;20614;-74
2022/03/19 05:07:14;;;;;;;18.83;6.77;;;;;;;;;;5074944;28;20222;-74
2022/03/19 05:12:29;;;;;;;11.73;6.43;;;;;;;;;;5074580;28;20195;-74
2022/03/19 05:14:58;;;;;;;11.70;6.70;;;;;;;;;;5075193;28;20214;-74
2022/03/19 05:17:28;;;;;;;16.90;7.27;;;;;;;;;;5073935;28;20215;-74
2022/03/19 05:19:56;;;;;;;16.20;6.77;;;;;;;;;;5074587;28;20613;-74
2022/03/19 05:22:25;;;;;;;19.47;7.30;;;;;;;;;;5075065;28;20252;-74
2022/03/19 05:24:53;;;;;;;17.33;7.47;;;;;;;;;;5075135;28;20209;-74
2022/03/19 05:27:22;;;;;;;19.83;7.67;;;;;;;;;;5074438;28;20222;-74
2022/03/19 05:29:51;;;;;;;21.37;7.53;;;;;;;;;;5074578;28;20211;-74
2022/03/19 05:32:20;;;;;;;16.17;7.93;;;;;;;;;;5074603;28;20714;-74
2022/03/19 05:34:50;;;;;;;15.73;6.87;;;;;;;;;;5073515;28;20247;-75
2022/03/19 05:37:23;;;;;;;21.20;7.53;;;;;;;;;;5075242;28;20308;-75
2022/03/19 05:39:54;;;;;;;16.97;7.60;;;;;;;;;;5074829;28;20194;-74
2022/03/19 05:42:22;;;;;;;16.43;8.23;;;;;;;;;;5074407;28;20652;-73
2022/03/19 05:44:51;;;;;;;18.50;7.97;;;;;;;;;;5074105;28;20547;-73
2022/03/19 05:47:19;;;;;;;19.87;7.27;;;;;;;;;;5074652;28;20276;-74
2022/03/19 05:49:48;;;;;;;15.77;7.27;;;;;;;;;;5074497;28;20258;-74
2022/03/19 05:52:17;;;;;;;16.47;7.80;;;;;;;;;;5073622;28;20218;-74
2022/03/19 05:54:46;;;;;;;18.23;7.93;;;;;;;;;;5073754;28;20264;-74
2022/03/19 05:57:14;;;;;;;16.77;7.80;;;;;;;;;;5074160;28;20229;-74
2022/03/19 05:59:43;;;;;;;16.57;7.70;;;;;;;;;;5073667;28;20664;-74
2022/03/19 06:02:11;;;;;;;20.50;8.30;;;;;;;;;;5065924;28;20590;-74
2022/03/19 06:04:40;;;;;;;18.77;8.23;;;;;;;;;;5069137;28;20700;-74
2022/03/19 06:07:08;;;;;;;20.53;7.50;;;;;;;;;;5066881;28;20228;-74
2022/03/19 06:09:38;;;;;;;16.23;7.43;;;;;;;;;;5060448;28;20261;-73
2022/03/19 06:12:07;;;;;;;18.33;7.63;;;;;;;;;;5072032;28;20255;-74
2022/03/19 06:14:35;;;;;;;19.87;8.63;;;;;;;;;;5067485;28;20202;-74
2022/03/19 06:17:04;;;;;;;20.37;8.20;;;;;;;;;;5073960;28;20230;-74
2022/03/19 06:19:32;;;;;;;19.63;8.60;;;;;;;;;;5073311;28;20235;-74
2022/03/19 06:22:01;;;;;;;15.87;8.37;;;;;;;;;;5073721;28;20202;-74
2022/03/19 06:24:29;;;;;;;19.97;8.37;;;;;;;;;;5069088;28;20202;-74
2022/03/19 06:26:59;;;;;;;18.60;8.27;;;;;;;;;;5065891;28;20226;-74
2022/03/19 06:29:27;;;;;;;16.67;7.97;;;;;;;;;;5067116;28;20405;-74
2022/03/19 06:31:56;;;;;;;22.57;9.00;;;;;;;;;;5072967;28;20198;-74
2022/03/19 06:34:24;;;;;;;19.43;8.40;;;;;;;;;;5064892;28;20249;-74
2022/03/19 06:39:39;;;;;;;20.87;8.17;;;;;;;;;;5062250;28;20679;-74
2022/03/19 06:42:09;;;;;;;15.80;7.63;;;;;;;;;;5059648;28;20195;-75
2022/03/19 06:44:38;;;;;;;18.10;8.70;;;;;;;;;;5070003;28;20260;-75
2022/03/19 06:47:07;;;;;;;19.07;8.33;;;;;;;;;;5066709;28;20242;-74
2022/03/19 06:49:36;;;;;;;22.03;8.90;;;;;;;;;;5072376;28;20218;-74
2022/03/19 06:52:05;;;;;;;17.97;8.13;;;;;;;;;;5066580;28;20292;-74
2022/03/19 06:54:33;;;;;;;18.33;8.53;;;;;;;;;;5070150;28;20206;-73
2022/03/19 06:57:02;;;;;;;19.77;9.27;;;;;;;;;;5069020;28;20221;-74
2022/03/19 06:59:32;;;;;;;18.40;8.67;;;;;;;;;;5068336;28;20207;-74
2022/03/19 07:02:00;;;;;;;20.93;8.80;;;;;;;;;;5072779;28;20609;-74
2022/03/19 07:04:29;;;;;;;15.90;8.03;;;;;;;;;;5069092;28;20214;-74
2022/03/19 07:07:01;;;;;;;18.87;7.90;;;;;;;;;;5072554;28;20238;-75
2022/03/19 07:09:30;;;;;;;18.13;7.70;;;;;;;;;;5073052;28;20651;-74
2022/03/19 07:11:58;;;;;;;11.97;6.23;;;;;;;;;;5071108;28;20218;-74
2022/03/19 07:14:27;;;;;;;14.83;6.77;;;;;;;;;;5071201;28;20540;-74
2022/03/19 07:16:57;;;;;;;18.53;7.63;;;;;;;;;;5063501;28;20230;-75
2022/03/19 07:19:25;;;;;;;12.90;6.33;;;;;;;;;;5064981;28;20199;-74
2022/03/19 07:21:54;;;;;;;12.63;7.23;;;;;;;;;;5061315;28;20256;-75
2022/03/19 07:24:22;;;;;;;12.80;6.13;;;;;;;;;;5071026;28;20210;-75
2022/03/19 07:26:51;;;;;;;17.43;6.63;;;;;;;;;;5072426;28;20271;-75
2022/03/19 07:29:20;;;;;;;14.23;6.03;;;;;;;;;;5072557;28;20264;-74
2022/03/19 07:31:51;;;;;;;11.47;6.27;;;;;;;;;;5072496;28;20245;-74
2022/03/19 07:34:21;;;;;;;15.37;6.67;;;;;;;;;;5071191;28;20241;-75
2022/03/19 07:36:50;;;;;;;15.37;6.93;;;;;;;;;;5072152;28;20226;-75
2022/03/19 07:39:18;;;;;;;15.00;6.53;;;;;;;;;;5072225;28;20198;-75
2022/03/19 07:41:46;;;;;;;14.80;6.70;;;;;;;;;;5075615;28;20671;-74
2022/03/19 07:44:15;;;;;;;14.33;8.23;;;;;;;;;;5076016;28;20209;-75
2022/03/19 07:46:45;;;;;;;19.70;8.63;;;;;;;;;;5075724;28;20259;-74
2022/03/19 07:49:14;;;;;;;13.90;6.20;;;;;;;;;;5072854;28;20740;-74
2022/03/19 07:51:44;;;;;;;16.57;7.60;;;;;;;;;;5065463;28;20210;-74
2022/03/19 07:54:13;;;;;;;17.50;6.90;;;;;;;;;;5076297;28;20208;-74
2022/03/19 07:56:41;;;;;;;21.83;7.73;;;;;;;;;;5075443;28;20218;-74
2022/03/19 07:59:10;;;;;;;18.27;7.30;;;;;;;;;;5076066;28;20202;-74
2022/03/19 08:01:39;;;;;;;18.17;6.27;;;;;;;;;;5076018;28;20202;-74
2022/03/19 08:04:09;;;;;;;15.83;6.50;;;;;;;;;;5076189;28;20230;-74
2022/03/19 08:06:38;;;;;;;11.53;5.67;;;;;;;;;;5071373;28;20214;-74
2022/03/19 08:09:08;;;;;;;12.37;5.73;;;;;;;;;;5069511;28;20261;-74
2022/03/19 08:11:38;;;;;;;13.93;5.10;;;;;;;;;;5072575;28;20317;-74
2022/03/19 08:14:06;;;;;;;15.97;5.30;;;;;;;;;;5074123;28;20202;-75
2022/03/19 08:16:35;;;;;;;10.07;4.70;;;;;;;;;;5073499;28;20656;-75
2022/03/19 08:19:03;;;;;;;12.30;4.70;;;;;;;;;;5075475;28;20198;-74
2022/03/19 08:21:32;;;;;;;11.50;4.30;;;;;;;;;;5075752;28;20195;-74
2022/03/19 08:24:00;;;;;;;11.00;4.00;;;;;;;;;;5075419;28;20198;-74
2022/03/19 08:26:30;;;;;;;10.20;3.83;;;;;;;;;;5075672;28;20291;-74
2022/03/19 08:28:58;;;;;;;11.90;3.63;;;;;;;;;;5076141;28;20721;-74
2022/03/19 08:31:27;;;;;;;9.67;3.50;;;;;;;;;;5075539;28;20210;-75
2022/03/19 08:33:56;;;;;;;6.33;3.27;;;;;;;;;;5075047;28;20199;-75
2022/03/19 08:36:24;;;;;;;7.83;3.10;;;;;;;;;;5073715;28;20215;-75
2022/03/19 08:41:43;;;;;;;7.50;3.17;;;;;;;;;;5074677;28;20198;-75
2022/03/19 08:44:11;;;;;;;8.40;3.93;;;;;;;;;;5075654;28;20199;-75
2022/03/19 08:46:40;;;;;;;7.63;3.43;;;;;;;;;;5074935;28;20226;-74
2022/03/19 08:49:09;;;;;;;8.73;3.70;;;;;;;;;;5074369;28;20260;-74
2022/03/19 08:51:40;;;;;;;11.83;3.60;;;;;;;;;;5073852;28;20223;-74
2022/03/19 08:54:09;;;;;;;8.37;3.70;;;;;;;;;;5075401;28;20206;-74
2022/03/19 08:56:38;;;;;;;7.00;3.50;;;;;;;;;;5075105;28;20628;-74
2022/03/19 08:59:08;;;;;;;7.27;3.50;;;;;;;;;;5075467;28;20589;-75
2022/03/19 09:01:36;;;;;;;6.40;3.27;;;;;;;;;;5074716;28;20206;-74
2022/03/19 09:04:05;;;;;;;8.10;3.70;;;;;;;;;;5075478;28;20557;-74
2022/03/19 09:06:34;;;;;;;8.67;3.37;;;;;;;;;;5074777;28;20226;-74
2022/03/19 09:09:03;;;;;;;8.63;3.70;;;;;;;;;;5074194;28;20211;-75
2022/03/19 09:11:32;;;;;;;6.33;3.60;;;;;;;;;;5073918;28;20226;-75
2022/03/19 09:14:00;;;;;;;11.70;3.57;;;;;;;;;;5073996;28;20211;-74
2022/03/19 09:16:30;;;;;;;9.77;3.40;;;;;;;;;;5075126;28;20772;-74
2022/03/19 09:18:59;;;;;;;8.07;3.40;;;;;;;;;;5070575;28;20206;-74
2022/03/19 09:21:29;;;;;;;8.23;3.50;;;;;;;;;;5073311;28;20206;-74
2022/03/19 09:23:58;;;;;;;9.23;3.63;;;;;;;;;;5071931;28;20207;-74
2022/03/19 09:26:26;;;;;;;7.93;3.33;;;;;;;;;;5073895;28;20222;-74
2022/03/19 09:28:55;;;;;;;6.47;3.47;;;;;;;;;;5067208;28;20613;-74
2022/03/19 09:31:23;;;;;;;7.17;3.37;;;;;;;;;;5058949;28;20206;-74
2022/03/19 09:33:53;;;;;;;9.77;3.93;;;;;;;;;;5060526;28;20199;-75
2022/03/19 09:36:22;;;;;;;7.57;3.57;;;;;;;;;;5066052;28;20959;-75
2022/03/19 09:38:51;;;;;;;8.07;3.87;;;;;;;;;;5064059;28;20225;-74
2022/03/19 09:41:19;;;;;;;8.17;3.30;;;;;;;;;;5070577;28;20256;-74
2022/03/19 09:43:49;;;;;;;8.93;3.70;;;;;;;;;;5073580;28;20657;-74
2022/03/19 09:46:18;;;;;;;8.20;3.40;;;;;;;;;;5073769;28;20367;-74
2022/03/19 09:49:10;;;;;;;6.40;2.83;;;;;;;;;;5070806;28;20198;-74
2022/03/19 09:51:44;;;;;;;7.77;3.30;;;;;;;;;;5068854;28;20244;-74
2022/03/19 09:54:14;;;;;;;8.80;3.13;;;;;;;;;;5071857;28;20207;-74
2022/03/19 09:56:42;;;;;;;6.97;3.03;;;;;;;;;;5071987;28;20219;-74
2022/03/19 09:59:11;;;;;;;7.40;2.63;;;;;;;;;;5073830;28;20203;-75
2022/03/19 10:01:39;;;;;;;7.27;2.90;;;;;;;;;;5073617;28;20206;-74
2022/03/19 10:04:08;;;;;;;6.80;2.80;;;;;;;;;;5073770;28;20264;-74
2022/03/19 10:09:41;;;;;;;5.60;2.60;;;;;;;;;;5073226;28;20202;-74
2022/03/19 10:12:13;;;;;;;6.37;2.60;;;;;;;;;;5072143;28;20696;-75
2022/03/19 10:14:41;;;;;;;7.67;2.70;;;;;;;;;;5072220;28;20202;-75
2022/03/19 10:17:10;;;;;;;6.53;2.77;;;;;;;;;;5072411;28;20241;-75
2022/03/19 10:19:50;;;;;;;7.33;3.03;;;;;;;;;;5073748;28;20198;-75
2022/03/19 10:22:26;;;;;;;5.37;2.77;;;;;;;;;;5073037;28;20255;-75
2022/03/19 10:24:58;;;;;;;4.83;2.67;;;;;;;;;;5073483;28;20209;-75
2022/03/19 10:27:27;;;;;;;5.53;2.20;;;;;;;;;;5071502;28;20214;-75
2022/03/19 10:30:07;;;;;;;4.70;2.20;;;;;;;;;;5067487;28;20261;-75
2022/03/19 10:32:36;;;;;;;6.63;2.90;;;;;;;;;;5071426;28;20224;-74
2022/03/19 10:35:04;;;;;;;2.77;1.80;;;;;;;;;;5071525;28;20649;-75
2022/03/19 10:37:39;;;;;;;7.17;2.60;;;;;;;;;;5071360;28;20592;-74
2022/03/19 10:40:09;;;;;;;4.13;2.17;;;;;;;;;;5073166;28;20194;-75
2022/03/19 10:42:40;;;;;;;4.80;2.20;;;;;;;;;;5072960;28;20252;-75
2022/03/19 10:45:09;;;;;;;4.53;2.20;;;;;;;;;;5071169;28;20206;-75
2022/03/19 10:47:41;;;;;;;5.50;2.20;;;;;;;;;;5069484;28;20268;-76
2022/03/19 10:50:10;;;;;;;4.80;2.30;;;;;;;;;;5072431;28;20206;-75
2022/03/19 10:52:40;;;;;;;7.67;2.00;;;;;;;;;;5072969;28;20586;-75
2022/03/19 10:55:09;;;;;;;5.03;2.27;;;;;;;;;;5072180;28;20263;-75
2022/03/19 10:57:38;;;;;;;5.50;2.17;;;;;;;;;;5073346;28;20241;-74
2022/03/19 11:00:07;;;;;;;5.77;2.20;;;;;;;;;;5071485;28;20205;-75
2022/03/19 11:02:36;;;;;;;4.37;1.83;;;;;;;;;;5073132;28;20256;-75
2022/03/19 11:05:07;;;;;;;4.20;1.70;;;;;;;;;;5068528;28;20198;-75
2022/03/19 11:07:35;;;;;;;3.57;2.07;;;;;;;;;;5060097;28;20730;-75
2022/03/19 11:10:05;;;;;;;3.23;1.30;;;;;;;;;;5066493;28;20209;-75
2022/03/19 11:12:36;;;;;;;4.27;1.80;;;;;;;;;;5070359;28;20685;-75
2022/03/19 11:15:05;;;;;;;4.13;1.63;;;;;;;;;;5070995;28;20206;-75
2022/03/19 11:17:34;;;;;;;4.77;1.80;;;;;;;;;;5070643;28;20226;-75
2022/03/19 11:20:04;;;;;;;3.60;1.57;;;;;;;;;;5069245;28;20555;-75
2022/03/19 11:22:39;;;;;;;6.17;2.10;;;;;;;;;;5071650;28;20679;-75
2022/03/19 11:25:26;;;;;;;4.67;1.60;;;;;;;;;;5053110;28;20199;-76
2022/03/19 11:27:57;;;;;;;3.77;1.40;;;;;;;;;;5068400;28;20222;-76
2022/03/19 11:30:26;;;;;;;4.20;1.57;;;;;;;;;;5068358;28;20206;-76
2022/03/19 11:33:02;;;;;;;3.47;1.60;;;;;;;;;;5066832;28;20210;-75
2022/03/19 11:35:30;;;;;;;4.10;1.53;;;;;;;;;;5071390;28;20202;-76
2022/03/19 11:38:00;;;;;;;4.03;1.53;;;;;;;;;;5072075;28;20273;-76
2022/03/19 11:40:29;;;;;;;3.17;1.30;;;;;;;;;;5071567;28;20206;-76
2022/03/19 11:43:17;;;;;;;4.33;1.60;;;;;;;;;;5061445;28;20706;-75
2022/03/19 11:45:54;;;;;;;5.63;1.70;;;;;;;;;;5071370;28;20271;-74
2022/03/19 11:48:41;;;;;;;3.27;1.70;;;;;;;;;;5063850;28;20210;-74
2022/03/19 11:51:24;;;;;;;3.57;1.50;;;;;;;;;;5062853;28;20261;-74
2022/03/19 11:53:54;;;;;;;4.47;1.50;;;;;;;;;;5067788;28;20230;-74
2022/03/19 11:56:23;;;;;;;5.70;1.70;;;;;;;;;;5065994;28;20222;-74
2022/03/19 11:58:53;;;;;;;2.50;1.20;;;;;;;;;;5063139;28;20256;-74
2022/03/19 12:01:36;;;;;;;4.40;1.47;;;;;;;;;;5072487;28;20256;-74
2022/03/19 12:04:11;;;;;;;3.37;1.50;;;;;;;;;;5071218;28;20653;-74
2022/03/19 12:06:40;;;;;;;3.10;1.63;;;;;;;;;;5068733;28;20695;-74
2022/03/19 12:09:09;;;;;;;3.67;1.30;;;;;;;;;;5062292;28;20215;-74
2022/03/19 12:11:37;;;;;;;3.60;1.47;;;;;;;;;;5055865;28;20207;-74
2022/03/19 12:14:15;;;;;;;3.90;1.30;;;;;;;;;;5068970;28;20224;-74
2022/03/19 12:16:45;;;;;;;2.73;1.30;;;;;;;;;;5069786;28;20638;-74
2022/03/19 12:19:14;;;;;;;3.20;1.43;;;;;;;;;;5071330;28;20206;-75
2022/03/19 12:21:42;;;;;;;3.43;1.57;;;;;;;;;;5070365;28;20252;-75
2022/03/19 12:24:24;;;;;;;3.43;1.50;;;;;;;;;;5071269;28;20256;-74
2022/03/19 12:26:53;;;;;;;4.03;1.80;;;;;;;;;;5072335;28;20233;-75
2022/03/19 12:29:25;;;;;;;3.57;1.60;;;;;;;;;;5075778;28;20207;-74
2022/03/19 12:31:54;;;;;;;3.93;1.80;;;;;;;;;;5072240;28;20203;-75
2022/03/19 12:34:24;;;;;;;4.07;1.70;;;;;;;;;;5073464;28;20304;-75
2022/03/19 12:36:53;;;;;;;3.33;1.60;;;;;;;;;;5073618;28;20751;-75
2022/03/19 12:39:22;;;;;;;5.53;1.77;;;;;;;;;;5068751;28;20195;-75
2022/03/19 12:41:51;;;;;;;4.33;1.50;;;;;;;;;;5074508;28;20611;-74
2022/03/19 12:44:36;;;;;;;4.00;1.50;;;;;;;;;;5072970;28;20252;-74
2022/03/19 12:47:06;;;;;;;4.50;1.50;;;;;;;;;;5074980;28;20214;-74
2022/03/19 12:49:35;;;;;;;5.50;1.70;;;;;;;;;;5074353;28;20202;-74
2022/03/19 12:52:08;;;;;;;4.87;1.60;;;;;;;;;;5074426;28;20285;-74
2022/03/19 12:54:36;;;;;;;3.97;1.60;;;;;;;;;;5074771;28;20225;-74
2022/03/19 12:57:09;;;;;;;4.83;1.70;;;;;;;;;;5073326;28;20724;-74
2022/03/19 12:59:47;;;;;;;4.27;1.70;;;;;;;;;;5076245;28;20213;-74
2022/03/19 13:02:16;;;;;;;4.50;1.70;;;;;;;;;;5074323;28;20240;-74
2022/03/19 13:04:45;;;;;;;3.70;1.30;;;;;;;;;;5074480;28;20222;-74
2022/03/19 13:07:14;;;;;;;3.93;1.80;;;;;;;;;;5074010;28;20218;-74
2022/03/19 13:09:42;;;;;;;4.90;1.80;;;;;;;;;;5074095;28;20202;-74
2022/03/19 13:12:15;;;;;;;3.67;1.50;;;;;;;;;;5073684;28;20664;-74
2022/03/19 13:14:50;;;;;;;3.37;1.50;;;;;;;;;;5069673;28;20219;-74
2022/03/19 13:17:19;;;;;;;2.87;1.57;;;;;;;;;;5070681;28;20222;-73
2022/03/19 13:19:47;;;;;;;5.33;1.63;;;;;;;;;;5073372;28;20194;-73
2022/03/19 13:22:19;;;;;;;2.97;1.30;;;;;;;;;;5069890;28;20621;-74
2022/03/19 13:24:49;;;;;;;5.93;1.37;;;;;;;;;;5067014;28;20240;-74
2022/03/19 13:27:18;;;;;;;3.63;1.40;;;;;;;;;;5063539;28;20238;-74
2022/03/19 13:29:46;;;;;;;4.43;1.50;;;;;;;;;;5065462;28;20202;-74
2022/03/19 13:32:19;;;;;;;3.80;1.23;;;;;;;;;;5074657;28;20248;-74
2022/03/19 13:34:49;;;;;;;3.13;1.40;;;;;;;;;;5069534;28;20305;-74
2022/03/19 13:37:19;;;;;;;2.50;1.47;;;;;;;;;;5068776;28;20709;-74
2022/03/19 13:39:48;;;;;;;3.17;1.30;;;;;;;;;;5061256;28;20206;-74
2022/03/19 13:42:18;;;;;;;3.10;1.50;;;;;;;;;;5067267;28;20205;-73
2022/03/19 13:44:47;;;;;;;3.13;1.30;;;;;;;;;;5068353;28;20208;-74
2022/03/19 13:47:18;;;;;;;4.27;1.20;;;;;;;;;;5061198;28;20226;-74
2022/03/19 13:49:48;;;;;;;4.17;1.60;;;;;;;;;;5068202;28;20681;-74
2022/03/19 13:52:34;;;;;;;2.40;1.40;;;;;;;;;;5063735;28;20202;-74
2022/03/19 13:55:04;;;;;;;5.00;1.53;;;;;;;;;;5069035;28;20222;-75
2022/03/19 13:57:37;;;;;;;2.87;1.40;;;;;;;;;;5065125;28;20230;-74
2022/03/19 14:00:13;;;;;;;3.10;1.50;;;;;;;;;;5058296;28;20627;-74
2022/03/19 14:02:43;;;;;;;3.53;1.50;;;;;;;;;;5059925;28;20202;-75
2022/03/19 14:05:12;;;;;;;2.10;1.30;;;;;;;;;;5068208;28;20285;-75
2022/03/19 14:07:42;;;;;;;2.73;1.20;;;;;;;;;;5071580;28;20305;-75
2022/03/19 14:10:11;;;;;;;2.20;1.27;;;;;;;;;;5070168;28;20619;-74
2022/03/19 14:12:40;;;;;;;3.10;1.30;;;;;;;;;;5069018;28;20206;-74
2022/03/19 14:15:09;;;;;;;2.73;1.20;;;;;;;;;;5066329;28;20226;-74
2022/03/19 14:17:49;;;;;;;2.60;1.33;;;;;;;;;;5070645;28;20229;-74
2022/03/19 14:20:18;;;;;;;2.97;1.20;;;;;;;;;;5069654;28;20257;-74
2022/03/19 14:22:47;;;;;;;2.57;1.17;;;;;;;;;;5070557;28;20205;-74
2022/03/19 14:25:16;;;;;;;2.60;1.37;;;;;;;;;;5066065;28;20210;-74
2022/03/19 14:27:45;;;;;;;3.33;1.00;;;;;;;;;;5064244;28;20223;-74
2022/03/19 14:30:21;;;;;;;3.17;1.17;;;;;;;;;;5067519;28;20213;-74
2022/03/19 14:32:50;;;;;;;2.07;1.23;;;;;;;;;;5069900;28;20206;-74
2022/03/19 14:35:37;;;;;;;3.73;1.50;;;;;;;;;;5066422;28;20230;-75
2022/03/19 14:38:06;;;;;;;1.77;1.30;;;;;;;;;;5058353;28;20230;-75
2022/03/19 14:40:34;;;;;;;4.43;1.20;;;;;;;;;;5069908;28;20202;-75
2022/03/19 14:43:05;;;;;;;3.43;1.10;;;;;;;;;;5073012;28;20209;-75
2022/03/19 14:45:33;;;;;;;3.63;2.13;;;;;;;;;;5071853;28;20621;-75
2022/03/19 14:48:05;;;;;;;3.00;1.47;;;;;;;;;;5069487;28;20225;-74
2022/03/19 14:50:33;;;;;;;2.90;1.13;;;;;;;;;;5071430;28;20257;-75
2022/03/19 14:53:01;;;;;;;2.50;1.17;;;;;;;;;;5068700;28;20210;-75
2022/03/19 14:55:30;;;;;;;2.20;0.93;;;;;;;;;;5069518;28;20218;-74
2022/03/19 14:57:58;;;;;;;2.43;1.10;;;;;;;;;;5066280;28;20637;-75
2022/03/19 15:00:28;;;;;;;1.33;0.93;;;;;;;;;;5073365;28;20221;-75
2022/03/19 15:02:56;;;;;;;1.73;0.90;;;;;;;;;;5072087;28;20213;-75
2022/03/19 15:05:26;;;;;;;2.30;1.30;;;;;;;;;;5068351;28;20197;-75